sensor_id;sensor_type;location;lat;lon;timestamp;pressure;altitude;pressure_sealevel;temperature;humidity
81909;BME280;71372;43.514;1.512;2024-03-06T00:01:15;100740.69;;;8.05;75.51
81909;BME280;71372;43.514;1.512;2024-03-06T00:03:41;100734.56;;;8.03;75.38
81909;BME280;71372;43.514;1.512;2024-03-06T00:06:07;100733.72;;;8.01;75.62
81909;BME280;71372;43.514;1.512;2024-03-06T00:08:34;100737.28;;;8.00;75.40
81909;BME280;71372;43.514;1.512;2024-03-06T00:11:00;100737.38;;;7.97;75.38
81909;BME280;71372;43.514;1.512;2024-03-06T00:13:26;100735.66;;;7.96;75.23
81909;BME280;71372;43.514;1.512;2024-03-06T00:15:52;100740.19;;;7.90;75.92
81909;BME280;71372;43.514;1.512;2024-03-06T00:18:17;100743.06;;;7.83;75.77
81909;BME280;71372;43.514;1.512;2024-03-06T00:20:43;100750.13;;;7.82;75.82
81909;BME280;71372;43.514;1.512;2024-03-06T00:23:10;100751.88;;;7.83;76.09
81909;BME280;71372;43.514;1.512;2024-03-06T00:25:36;100750.13;;;7.82;76.25
81909;BME280;71372;43.514;1.512;2024-03-06T00:28:02;100750.19;;;7.79;75.90
81909;BME280;71372;43.514;1.512;2024-03-06T00:30:28;100753.69;;;7.81;76.06
81909;BME280;71372;43.514;1.512;2024-03-06T00:32:54;100746.56;;;7.83;76.33
81909;BME280;71372;43.514;1.512;2024-03-06T00:35:20;100754.44;;;7.86;76.05
81909;BME280;71372;43.514;1.512;2024-03-06T00:37:46;100746.47;;;7.86;75.96
81909;BME280;71372;43.514;1.512;2024-03-06T00:40:12;100757.81;;;7.91;75.96
81909;BME280;71372;43.514;1.512;2024-03-06T00:42:38;100750.72;;;7.94;76.11
81909;BME280;71372;43.514;1.512;2024-03-06T00:45:07;100756.84;;;7.96;75.97
81909;BME280;71372;43.514;1.512;2024-03-06T00:47:33;100751.56;;;7.96;76.46
81909;BME280;71372;43.514;1.512;2024-03-06T00:50:00;100748.03;;;7.95;76.42
81909;BME280;71372;43.514;1.512;2024-03-06T00:52:26;100754.25;;;7.94;75.98
81909;BME280;71372;43.514;1.512;2024-03-06T00:54:53;100753.38;;;7.92;75.95
81909;BME280;71372;43.514;1.512;2024-03-06T00:57:18;100757.78;;;7.93;75.80
81909;BME280;71372;43.514;1.512;2024-03-06T00:59:44;100759.56;;;7.92;76.12
81909;BME280;71372;43.514;1.512;2024-03-06T01:02:10;100749.81;;;7.95;76.42
81909;BME280;71372;43.514;1.512;2024-03-06T01:04:36;100748.03;;;7.95;75.81
81909;BME280;71372;43.514;1.512;2024-03-06T01:07:02;100740.91;;;7.97;75.38
81909;BME280;71372;43.514;1.512;2024-03-06T01:09:28;100746.16;;;7.99;75.95
81909;BME280;71372;43.514;1.512;2024-03-06T01:11:54;100749.63;;;8.01;75.45
81909;BME280;71372;43.514;1.512;2024-03-06T01:14:20;100746.06;;;8.02;75.75
81909;BME280;71372;43.514;1.512;2024-03-06T01:16:46;100746.91;;;8.04;75.87
81909;BME280;71372;43.514;1.512;2024-03-06T01:19:12;100753.06;;;8.06;75.33
81909;BME280;71372;43.514;1.512;2024-03-06T01:21:38;100752.13;;;8.07;75.39
81909;BME280;71372;43.514;1.512;2024-03-06T01:24:04;100747.66;;;8.09;76.11
81909;BME280;71372;43.514;1.512;2024-03-06T01:26:30;100738.78;;;8.10;75.69
81909;BME280;71372;43.514;1.512;2024-03-06T01:28:56;100732.63;;;8.09;75.83
81909;BME280;71372;43.514;1.512;2024-03-06T01:31:22;100732.72;;;8.06;75.65
81909;BME280;71372;43.514;1.512;2024-03-06T01:33:48;100733.50;;;8.10;75.10
81909;BME280;71372;43.514;1.512;2024-03-06T01:36:14;100738.78;;;8.10;75.66
81909;BME280;71372;43.514;1.512;2024-03-06T01:38:40;100738.75;;;8.11;75.55
81909;BME280;71372;43.514;1.512;2024-03-06T01:41:07;100733.41;;;8.13;75.22
81909;BME280;71372;43.514;1.512;2024-03-06T01:43:37;100740.44;;;8.14;75.19
81909;BME280;71372;43.514;1.512;2024-03-06T01:46:06;100732.44;;;8.15;75.66
81909;BME280;71372;43.514;1.512;2024-03-06T01:48:33;100725.34;;;8.16;75.45
81909;BME280;71372;43.514;1.512;2024-03-06T01:51:01;100725.28;;;8.19;75.97
81909;BME280;71372;43.514;1.512;2024-03-06T01:53:29;100719.97;;;8.19;75.20
81909;BME280;71372;43.514;1.512;2024-03-06T01:55:56;100719.06;;;8.20;75.71
81909;BME280;71372;43.514;1.512;2024-03-06T01:58:23;100713.75;;;8.20;75.73
81909;BME280;71372;43.514;1.512;2024-03-06T02:00:50;100710.28;;;8.18;76.17
81909;BME280;71372;43.514;1.512;2024-03-06T02:03:17;100710.28;;;8.18;76.16
81909;BME280;71372;43.514;1.512;2024-03-06T02:05:44;100705.00;;;8.18;76.29
81909;BME280;71372;43.514;1.512;2024-03-06T02:08:10;100699.69;;;8.18;75.74
81909;BME280;71372;43.514;1.512;2024-03-06T02:10:35;100685.56;;;8.16;76.36
81909;BME280;71372;43.514;1.512;2024-03-06T02:13:02;100688.22;;;8.17;76.41
81909;BME280;71372;43.514;1.512;2024-03-06T02:15:27;100680.25;;;8.16;76.35
81909;BME280;71372;43.514;1.512;2024-03-06T02:17:53;100680.25;;;8.16;76.56
81909;BME280;71372;43.514;1.512;2024-03-06T02:20:23;100680.25;;;8.16;76.21
81909;BME280;71372;43.514;1.512;2024-03-06T02:22:49;100672.34;;;8.14;76.19
81909;BME280;71372;43.514;1.512;2024-03-06T02:25:16;100669.72;;;8.14;76.37
81909;BME280;71372;43.514;1.512;2024-03-06T02:27:43;100661.75;;;8.14;76.24
81909;BME280;71372;43.514;1.512;2024-03-06T02:30:10;100668.78;;;8.15;76.66
81909;BME280;71372;43.514;1.512;2024-03-06T02:32:36;100670.56;;;8.15;76.82
81909;BME280;71372;43.514;1.512;2024-03-06T02:35:02;100670.56;;;8.15;76.84
81909;BME280;71372;43.514;1.512;2024-03-06T02:37:34;100653.75;;;8.16;76.30
81909;BME280;71372;43.514;1.512;2024-03-06T02:40:00;100665.22;;;8.16;76.42
81909;BME280;71372;43.514;1.512;2024-03-06T02:42:27;100656.38;;;8.17;76.94
81909;BME280;71372;43.514;1.512;2024-03-06T02:44:53;100656.38;;;8.17;76.38
81909;BME280;71372;43.514;1.512;2024-03-06T02:47:19;100661.69;;;8.16;76.48
81909;BME280;71372;43.514;1.512;2024-03-06T02:49:45;100659.16;;;8.13;76.66
81909;BME280;71372;43.514;1.512;2024-03-06T02:52:11;100666.31;;;8.09;76.63
81909;BME280;71372;43.514;1.512;2024-03-06T02:54:37;100655.81;;;8.06;76.99
81909;BME280;71372;43.514;1.512;2024-03-06T02:57:03;100648.78;;;8.04;76.95
81909;BME280;71372;43.514;1.512;2024-03-06T02:59:29;100659.44;;;8.02;76.97
81909;BME280;71372;43.514;1.512;2024-03-06T03:01:55;100654.19;;;8.01;76.71
81909;BME280;71372;43.514;1.512;2024-03-06T03:04:21;100648.03;;;8.00;76.98
81909;BME280;71372;43.514;1.512;2024-03-06T03:06:47;100646.28;;;7.99;76.19
81909;BME280;71372;43.514;1.512;2024-03-06T03:09:13;100633.94;;;7.98;77.00
81909;BME280;71372;43.514;1.512;2024-03-06T03:11:42;100639.28;;;7.97;76.45
81909;BME280;71372;43.514;1.512;2024-03-06T03:14:08;100638.47;;;7.95;76.70
81909;BME280;71372;43.514;1.512;2024-03-06T03:16:34;100643.84;;;7.91;76.13
81909;BME280;71372;43.514;1.512;2024-03-06T03:19:01;100651.97;;;7.85;76.34
81909;BME280;71372;43.514;1.512;2024-03-06T03:21:27;100652.06;;;7.81;76.85
81909;BME280;71372;43.514;1.512;2024-03-06T03:23:53;100649.56;;;7.76;77.27
81909;BME280;71372;43.514;1.512;2024-03-06T03:26:19;100652.41;;;7.69;77.03
81909;BME280;71372;43.514;1.512;2024-03-06T03:28:45;100654.31;;;7.63;77.36
81909;BME280;71372;43.514;1.512;2024-03-06T03:31:11;100648.16;;;7.63;76.85
81909;BME280;71372;43.514;1.512;2024-03-06T03:33:41;100633.09;;;7.65;76.78
81909;BME280;71372;43.514;1.512;2024-03-06T03:36:08;100625.13;;;7.65;76.73
81909;BME280;71372;43.514;1.512;2024-03-06T03:38:35;100636.56;;;7.67;76.81
81909;BME280;71372;43.514;1.512;2024-03-06T03:41:10;100636.59;;;7.66;76.58
81909;BME280;71372;43.514;1.512;2024-03-06T03:43:38;100635.69;;;7.67;76.94
81909;BME280;71372;43.514;1.512;2024-03-06T03:46:04;100641.91;;;7.66;76.88
81909;BME280;71372;43.514;1.512;2024-03-06T03:48:32;100642.78;;;7.66;77.19
81909;BME280;71372;43.514;1.512;2024-03-06T03:51:02;100639.19;;;7.67;76.80
81909;BME280;71372;43.514;1.512;2024-03-06T03:53:30;100633.91;;;7.67;76.68
81909;BME280;71372;43.514;1.512;2024-03-06T03:55:56;100631.25;;;7.67;76.80
81909;BME280;71372;43.514;1.512;2024-03-06T03:58:22;100627.75;;;7.67;77.13
81909;BME280;71372;43.514;1.512;2024-03-06T04:00:48;100613.63;;;7.66;76.58
81909;BME280;71372;43.514;1.512;2024-03-06T04:03:21;100612.78;;;7.64;77.07
81909;BME280;71372;43.514;1.512;2024-03-06T04:05:48;100614.63;;;7.62;77.16
81909;BME280;71372;43.514;1.512;2024-03-06T04:08:14;100623.53;;;7.59;77.36
81909;BME280;71372;43.514;1.512;2024-03-06T04:10:42;100629.69;;;7.60;76.96
81909;BME280;71372;43.514;1.512;2024-03-06T04:13:11;100622.69;;;7.57;77.08
81909;BME280;71372;43.514;1.512;2024-03-06T04:15:38;100622.72;;;7.56;76.77
81909;BME280;71372;43.514;1.512;2024-03-06T04:18:04;100625.38;;;7.56;77.21
81909;BME280;71372;43.514;1.512;2024-03-06T04:20:30;100628.94;;;7.55;77.03
81909;BME280;71372;43.514;1.512;2024-03-06T04:22:56;100637.78;;;7.54;77.04
81909;BME280;71372;43.514;1.512;2024-03-06T04:25:22;100642.22;;;7.53;77.25
81909;BME280;71372;43.514;1.512;2024-03-06T04:27:49;100643.09;;;7.54;77.29
81909;BME280;71372;43.514;1.512;2024-03-06T04:30:15;100639.66;;;7.50;76.92
81909;BME280;71372;43.514;1.512;2024-03-06T04:32:41;100641.34;;;7.53;77.27
81909;BME280;71372;43.514;1.512;2024-03-06T04:35:07;100633.38;;;7.54;77.37
81909;BME280;71372;43.514;1.512;2024-03-06T04:37:35;100636.88;;;7.55;77.03
81909;BME280;71372;43.514;1.512;2024-03-06T04:40:02;100639.50;;;7.56;77.11
81909;BME280;71372;43.514;1.512;2024-03-06T04:42:28;100640.34;;;7.57;77.16
81909;BME280;71372;43.514;1.512;2024-03-06T04:44:54;100652.72;;;7.58;77.16
81909;BME280;71372;43.514;1.512;2024-03-06T04:47:20;100656.25;;;7.58;77.35
81909;BME280;71372;43.514;1.512;2024-03-06T04:49:46;100645.59;;;7.60;77.23
81909;BME280;71372;43.514;1.512;2024-03-06T04:52:12;100635.88;;;7.60;77.24
81909;BME280;71372;43.514;1.512;2024-03-06T04:54:38;100634.03;;;7.62;77.56
81909;BME280;71372;43.514;1.512;2024-03-06T04:57:05;100631.38;;;7.62;77.13
81909;BME280;71372;43.514;1.512;2024-03-06T04:59:31;100634.00;;;7.64;77.10
81909;BME280;71372;43.514;1.512;2024-03-06T05:01:56;100627.00;;;7.61;77.34
81909;BME280;71372;43.514;1.512;2024-03-06T05:04:22;100630.53;;;7.62;77.19
81909;BME280;71372;43.514;1.512;2024-03-06T05:06:48;100635.91;;;7.59;77.68
81909;BME280;71372;43.514;1.512;2024-03-06T05:09:14;100635.16;;;7.54;77.48
81909;BME280;71372;43.514;1.512;2024-03-06T05:11:40;100636.06;;;7.53;77.71
81909;BME280;71372;43.514;1.512;2024-03-06T05:14:06;100641.34;;;7.53;77.29
81909;BME280;71372;43.514;1.512;2024-03-06T05:16:33;100645.78;;;7.52;77.59
81909;BME280;71372;43.514;1.512;2024-03-06T05:18:58;100637.84;;;7.52;77.58
81909;BME280;71372;43.514;1.512;2024-03-06T05:21:24;100643.09;;;7.54;77.35
81909;BME280;71372;43.514;1.512;2024-03-06T05:23:50;100644.88;;;7.53;77.80
81909;BME280;71372;43.514;1.512;2024-03-06T05:26:17;100641.34;;;7.53;77.49
81909;BME280;71372;43.514;1.512;2024-03-06T05:28:43;100627.19;;;7.54;77.92
81909;BME280;71372;43.514;1.512;2024-03-06T05:31:16;100629.75;;;7.57;77.86
81909;BME280;71372;43.514;1.512;2024-03-06T05:33:47;100631.53;;;7.58;77.98
81909;BME280;71372;43.514;1.512;2024-03-06T05:36:14;100638.56;;;7.57;77.84
81909;BME280;71372;43.514;1.512;2024-03-06T05:38:41;100641.22;;;7.59;77.86
81909;BME280;71372;43.514;1.512;2024-03-06T05:41:07;100635.91;;;7.59;77.61
81909;BME280;71372;43.514;1.512;2024-03-06T05:43:34;100641.22;;;7.59;78.00
81909;BME280;71372;43.514;1.512;2024-03-06T05:46:00;100635.00;;;7.60;77.77
81909;BME280;71372;43.514;1.512;2024-03-06T05:48:26;100646.47;;;7.60;77.73
81909;BME280;71372;43.514;1.512;2024-03-06T05:50:55;100649.97;;;7.61;77.93
81909;BME280;71372;43.514;1.512;2024-03-06T05:53:21;100651.72;;;7.62;77.59
81909;BME280;71372;43.514;1.512;2024-03-06T05:55:47;100642.00;;;7.62;78.09
81909;BME280;71372;43.514;1.512;2024-03-06T05:58:13;100640.16;;;7.65;77.65
81909;BME280;71372;43.514;1.512;2024-03-06T06:00:39;100640.16;;;7.65;77.83
81909;BME280;71372;43.514;1.512;2024-03-06T06:03:05;100629.56;;;7.65;77.72
81909;BME280;71372;43.514;1.512;2024-03-06T06:05:31;100633.13;;;7.63;77.63
81909;BME280;71372;43.514;1.512;2024-03-06T06:07:56;100630.53;;;7.62;77.82
81909;BME280;71372;43.514;1.512;2024-03-06T06:10:22;100628.84;;;7.59;78.36
81909;BME280;71372;43.514;1.512;2024-03-06T06:12:49;100632.41;;;7.57;77.60
81909;BME280;71372;43.514;1.512;2024-03-06T06:15:15;100637.75;;;7.55;77.91
81909;BME280;71372;43.514;1.512;2024-03-06T06:17:41;100630.75;;;7.53;77.77
81909;BME280;71372;43.514;1.512;2024-03-06T06:20:09;100640.50;;;7.52;78.22
81909;BME280;71372;43.514;1.512;2024-03-06T06:22:39;100634.41;;;7.49;78.15
81909;BME280;71372;43.514;1.512;2024-03-06T06:25:05;100645.00;;;7.49;78.24
81909;BME280;71372;43.514;1.512;2024-03-06T06:27:33;100646.84;;;7.47;78.12
81909;BME280;71372;43.514;1.512;2024-03-06T06:29:59;100642.41;;;7.46;78.31
81909;BME280;71372;43.514;1.512;2024-03-06T06:32:25;100645.97;;;7.46;78.63
81909;BME280;71372;43.514;1.512;2024-03-06T06:34:51;100641.53;;;7.47;78.44
81909;BME280;71372;43.514;1.512;2024-03-06T06:37:17;100640.66;;;7.46;78.57
81909;BME280;71372;43.514;1.512;2024-03-06T06:39:45;100650.31;;;7.49;78.52
81909;BME280;71372;43.514;1.512;2024-03-06T06:42:11;100648.53;;;7.49;78.46
81909;BME280;71372;43.514;1.512;2024-03-06T06:44:37;100648.47;;;7.51;78.42
81909;BME280;71372;43.514;1.512;2024-03-06T06:47:03;100643.13;;;7.52;78.69
81909;BME280;71372;43.514;1.512;2024-03-06T06:49:29;100644.06;;;7.51;78.38
81909;BME280;71372;43.514;1.512;2024-03-06T06:51:55;100641.34;;;7.53;78.63
81909;BME280;71372;43.514;1.512;2024-03-06T06:54:21;100642.19;;;7.55;78.85
81909;BME280;71372;43.514;1.512;2024-03-06T06:56:47;100639.53;;;7.55;78.79
81909;BME280;71372;43.514;1.512;2024-03-06T06:59:13;100639.50;;;7.56;78.34
81909;BME280;71372;43.514;1.512;2024-03-06T07:01:39;100638.56;;;7.57;78.89
81909;BME280;71372;43.514;1.512;2024-03-06T07:04:06;100638.56;;;7.59;78.71
81909;BME280;71372;43.514;1.512;2024-03-06T07:06:32;100638.53;;;7.60;78.39
81909;BME280;71372;43.514;1.512;2024-03-06T07:08:58;100638.47;;;7.62;78.51
81909;BME280;71372;43.514;1.512;2024-03-06T07:11:24;100635.81;;;7.62;78.30
81909;BME280;71372;43.514;1.512;2024-03-06T07:13:50;100630.44;;;7.65;78.68
81909;BME280;71372;43.514;1.512;2024-03-06T07:16:16;100637.50;;;7.65;78.06
81909;BME280;71372;43.514;1.512;2024-03-06T07:18:43;100633.91;;;7.67;78.14
81909;BME280;71372;43.514;1.512;2024-03-06T07:21:08;100633.84;;;7.70;77.85
81909;BME280;71372;43.514;1.512;2024-03-06T07:23:34;100630.25;;;7.73;78.46
81909;BME280;71372;43.514;1.512;2024-03-06T07:26:00;100635.31;;;7.80;78.49
81909;BME280;71372;43.514;1.512;2024-03-06T07:28:27;100634.97;;;7.92;78.55
81909;BME280;71372;43.514;1.512;2024-03-06T07:30:53;100633.75;;;8.04;78.28
81909;BME280;71372;43.514;1.512;2024-03-06T07:33:19;100632.47;;;8.19;78.46
81909;BME280;71372;43.514;1.512;2024-03-06T07:35:45;100637.41;;;8.31;77.79
81909;BME280;71372;43.514;1.512;2024-03-06T07:38:11;100637.03;;;8.45;77.89
81909;BME280;71372;43.514;1.512;2024-03-06T07:40:36;100633.03;;;8.60;77.49
81909;BME280;71372;43.514;1.512;2024-03-06T07:43:03;100623.66;;;8.76;77.44
81909;BME280;71372;43.514;1.512;2024-03-06T07:45:29;100632.78;;;8.95;77.32
81909;BME280;71372;43.514;1.512;2024-03-06T07:47:55;100638.44;;;9.13;76.57
81909;BME280;71372;43.514;1.512;2024-03-06T07:50:21;100641.44;;;9.28;77.23
81909;BME280;71372;43.514;1.512;2024-03-06T07:52:47;100646.28;;;9.42;75.95
81909;BME280;71372;43.514;1.512;2024-03-06T07:55:13;100640.66;;;9.51;75.64
81909;BME280;71372;43.514;1.512;2024-03-06T07:57:39;100637.78;;;9.57;75.41
81909;BME280;71372;43.514;1.512;2024-03-06T08:00:06;100643.81;;;9.62;75.77
81909;BME280;71372;43.514;1.512;2024-03-06T08:02:42;100645.44;;;9.66;75.50
81909;BME280;71372;43.514;1.512;2024-03-06T08:05:10;100636.50;;;9.69;75.43
81909;BME280;71372;43.514;1.512;2024-03-06T08:07:39;100643.34;;;9.76;75.22
81909;BME280;71372;43.514;1.512;2024-03-06T08:10:11;100643.06;;;9.84;75.30
81909;BME280;71372;43.514;1.512;2024-03-06T08:12:42;100638.31;;;9.92;75.52
81909;BME280;71372;43.514;1.512;2024-03-06T08:15:10;100649.56;;;10.00;75.14
81909;BME280;71372;43.514;1.512;2024-03-06T08:17:41;100646.66;;;10.08;74.82
81909;BME280;71372;43.514;1.512;2024-03-06T08:20:11;100643.75;;;10.14;74.61
81909;BME280;71372;43.514;1.512;2024-03-06T08:22:38;100649.94;;;10.14;74.07
81909;BME280;71372;43.514;1.512;2024-03-06T08:25:08;100651.50;;;10.20;74.27
81909;BME280;71372;43.514;1.512;2024-03-06T08:27:36;100648.56;;;10.28;73.88
81909;BME280;71372;43.514;1.512;2024-03-06T08:30:06;100652.75;;;10.35;74.32
81909;BME280;71372;43.514;1.512;2024-03-06T08:32:32;100655.16;;;10.41;73.90
81909;BME280;71372;43.514;1.512;2024-03-06T08:35:11;100662.69;;;10.53;73.92
81909;BME280;71372;43.514;1.512;2024-03-06T08:37:38;100659.69;;;10.62;73.24
81909;BME280;71372;43.514;1.512;2024-03-06T08:40:05;100658.28;;;10.75;73.45
81909;BME280;71372;43.514;1.512;2024-03-06T08:42:33;100663.81;;;10.93;73.10
81909;BME280;71372;43.514;1.512;2024-03-06T08:44:59;100661.47;;;11.07;72.85
81909;BME280;71372;43.514;1.512;2024-03-06T08:47:25;100670.69;;;11.20;72.89
81909;BME280;71372;43.514;1.512;2024-03-06T08:49:51;100659.72;;;11.28;71.90
81909;BME280;71372;43.514;1.512;2024-03-06T08:52:17;100665.72;;;11.33;72.11
81909;BME280;71372;43.514;1.512;2024-03-06T08:54:43;100666.34;;;11.39;72.21
81909;BME280;71372;43.514;1.512;2024-03-06T08:57:10;100660.56;;;11.50;72.04
81909;BME280;71372;43.514;1.512;2024-03-06T08:59:36;100669.91;;;11.60;71.85
81909;BME280;71372;43.514;1.512;2024-03-06T09:02:13;100662.28;;;11.71;70.80
81909;BME280;71372;43.514;1.512;2024-03-06T09:04:43;100664.66;;;11.79;71.03
81909;BME280;71372;43.514;1.512;2024-03-06T09:07:09;100665.34;;;11.84;71.11
81909;BME280;71372;43.514;1.512;2024-03-06T09:09:36;100664.00;;;11.94;71.02
81909;BME280;71372;43.514;1.512;2024-03-06T09:12:09;100661.72;;;12.06;70.65
81909;BME280;71372;43.514;1.512;2024-03-06T09:14:38;100669.47;;;12.12;70.71
81909;BME280;71372;43.514;1.512;2024-03-06T09:17:05;100663.72;;;12.21;70.53
81909;BME280;71372;43.514;1.512;2024-03-06T09:19:32;100663.34;;;12.28;70.07
81909;BME280;71372;43.514;1.512;2024-03-06T09:21:59;100667.56;;;12.34;69.98
81909;BME280;71372;43.514;1.512;2024-03-06T09:24:25;100666.31;;;12.41;70.04
81909;BME280;71372;43.514;1.512;2024-03-06T09:26:52;100673.13;;;12.48;69.39
81909;BME280;71372;43.514;1.512;2024-03-06T09:29:18;100668.66;;;12.49;69.84
81909;BME280;71372;43.514;1.512;2024-03-06T09:31:44;100670.84;;;12.59;69.58
81909;BME280;71372;43.514;1.512;2024-03-06T09:34:11;100678.34;;;12.70;68.78
81909;BME280;71372;43.514;1.512;2024-03-06T09:36:45;100676.97;;;12.80;68.45
81909;BME280;71372;43.514;1.512;2024-03-06T09:39:15;100673.84;;;12.89;68.32
81909;BME280;71372;43.514;1.512;2024-03-06T09:41:52;100681.44;;;12.99;67.84
81909;BME280;71372;43.514;1.512;2024-03-06T09:44:19;100675.72;;;13.06;67.32
81909;BME280;71372;43.514;1.512;2024-03-06T09:46:48;100678.75;;;13.17;67.35
81909;BME280;71372;43.514;1.512;2024-03-06T09:49:18;100675.66;;;13.27;67.66
81909;BME280;71372;43.514;1.512;2024-03-06T09:51:48;100679.91;;;13.31;66.76
81909;BME280;71372;43.514;1.512;2024-03-06T09:54:19;100682.09;;;13.23;66.45
81909;BME280;71372;43.514;1.512;2024-03-06T09:56:49;100677.88;;;13.17;66.44
81909;BME280;71372;43.514;1.512;2024-03-06T09:59:15;100674.47;;;13.13;66.06
81909;BME280;71372;43.514;1.512;2024-03-06T10:01:53;100672.03;;;13.09;65.64
81909;BME280;71372;43.514;1.512;2024-03-06T10:04:27;100678.56;;;13.03;65.99
81909;BME280;71372;43.514;1.512;2024-03-06T10:06:57;100661.22;;;12.93;66.32
81909;BME280;71372;43.514;1.512;2024-03-06T10:09:25;100665.91;;;12.88;66.10
81909;BME280;71372;43.514;1.512;2024-03-06T10:11:51;100662.16;;;12.73;65.91
81909;BME280;71372;43.514;1.512;2024-03-06T10:14:23;100666.91;;;12.67;66.33
81909;BME280;71372;43.514;1.512;2024-03-06T10:16:57;100666.69;;;12.52;65.78
81909;BME280;71372;43.514;1.512;2024-03-06T10:19:28;100664.47;;;12.43;66.44
81909;BME280;71372;43.514;1.512;2024-03-06T10:21:55;100664.97;;;12.33;66.50
81909;BME280;71372;43.514;1.512;2024-03-06T10:24:23;100659.97;;;12.25;66.87
81909;BME280;71372;43.514;1.512;2024-03-06T10:26:50;100663.44;;;12.27;67.06
81909;BME280;71372;43.514;1.512;2024-03-06T10:29:17;100655.41;;;12.27;66.68
81909;BME280;71372;43.514;1.512;2024-03-06T10:31:54;100656.22;;;12.29;66.43
81909;BME280;71372;43.514;1.512;2024-03-06T10:34:28;100665.94;;;12.30;66.62
81909;BME280;71372;43.514;1.512;2024-03-06T10:37:02;100657.38;;;12.42;66.77
81909;BME280;71372;43.514;1.512;2024-03-06T10:39:30;100655.03;;;12.55;66.34
81909;BME280;71372;43.514;1.512;2024-03-06T10:42:01;100651.03;;;12.64;66.36
81909;BME280;71372;43.514;1.512;2024-03-06T10:44:28;100644.09;;;12.78;66.04
81909;BME280;71372;43.514;1.512;2024-03-06T10:47:05;100646.06;;;12.94;65.28
81909;BME280;71372;43.514;1.512;2024-03-06T10:49:32;100649.00;;;13.06;65.24
81909;BME280;71372;43.514;1.512;2024-03-06T10:52:01;100644.66;;;13.23;65.01
81909;BME280;71372;43.514;1.512;2024-03-06T10:54:29;100636.63;;;13.23;64.53
81909;BME280;71372;43.514;1.512;2024-03-06T10:56:56;100633.50;;;13.13;63.99
81909;BME280;71372;43.514;1.512;2024-03-06T10:59:26;100631.00;;;13.10;64.47
81909;BME280;71372;43.514;1.512;2024-03-06T11:01:55;100624.00;;;13.07;64.72
81909;BME280;71372;43.514;1.512;2024-03-06T11:04:25;100624.22;;;13.03;64.66
81909;BME280;71372;43.514;1.512;2024-03-06T11:06:57;100622.72;;;12.97;64.29
81909;BME280;71372;43.514;1.512;2024-03-06T11:09:29;100621.44;;;12.87;64.77
81909;BME280;71372;43.514;1.512;2024-03-06T11:11:58;100619.53;;;12.89;64.57
81909;BME280;71372;43.514;1.512;2024-03-06T11:14:24;100618.53;;;12.92;64.55
81909;BME280;71372;43.514;1.512;2024-03-06T11:17:09;100617.22;;;13.00;64.33
81909;BME280;71372;43.514;1.512;2024-03-06T11:20:16;100615.66;;;13.13;63.99
81909;BME280;71372;43.514;1.512;2024-03-06T11:28:17;100611.56;;;13.06;63.84
81909;BME280;71372;43.514;1.512;2024-03-06T11:33:45;100608.97;;;13.05;63.73
81909;BME280;71372;43.514;1.512;2024-03-06T11:38:57;100598.13;;;13.27;63.22
81909;BME280;71372;43.514;1.512;2024-03-06T11:42:07;100593.88;;;13.40;63.01
81909;BME280;71372;43.514;1.512;2024-03-06T11:44:17;100595.13;;;13.50;62.26
81909;BME280;71372;43.514;1.512;2024-03-06T11:46:47;100590.47;;;13.54;62.94
81909;BME280;71372;43.514;1.512;2024-03-06T11:49:32;100587.38;;;13.61;62.65
81909;BME280;71372;43.514;1.512;2024-03-06T11:52:07;100582.59;;;13.68;62.92
81909;BME280;71372;43.514;1.512;2024-03-06T11:54:34;100572.44;;;13.74;63.01
81909;BME280;71372;43.514;1.512;2024-03-06T11:57:02;100575.56;;;13.83;63.19
81909;BME280;71372;43.514;1.512;2024-03-06T11:59:34;100573.66;;;13.85;62.79
81909;BME280;71372;43.514;1.512;2024-03-06T12:02:02;100568.31;;;13.85;62.59
81909;BME280;71372;43.514;1.512;2024-03-06T12:04:30;100566.84;;;13.79;62.74
81909;BME280;71372;43.514;1.512;2024-03-06T12:06:57;100556.59;;;13.87;62.77
81909;BME280;71372;43.514;1.512;2024-03-06T12:09:35;100562.25;;;13.98;62.17
81909;BME280;71372;43.514;1.512;2024-03-06T12:12:01;100551.81;;;14.10;61.53
81909;BME280;71372;43.514;1.512;2024-03-06T12:14:27;100547.66;;;14.20;61.33
81909;BME280;71372;43.514;1.512;2024-03-06T12:16:57;100536.25;;;14.32;60.95
81909;BME280;71372;43.514;1.512;2024-03-06T12:19:27;100534.91;;;14.25;60.17
81909;BME280;71372;43.514;1.512;2024-03-06T12:21:59;100533.25;;;14.22;59.96
81909;BME280;71372;43.514;1.512;2024-03-06T12:24:25;100526.44;;;14.32;59.79
81909;BME280;71372;43.514;1.512;2024-03-06T12:27:00;100522.53;;;14.38;59.93
81909;BME280;71372;43.514;1.512;2024-03-06T12:29:28;100521.50;;;14.41;60.47
81909;BME280;71372;43.514;1.512;2024-03-06T12:31:54;100528.69;;;14.24;59.92
81909;BME280;71372;43.514;1.512;2024-03-06T12:34:20;100523.81;;;14.15;60.08
81909;BME280;71372;43.514;1.512;2024-03-06T12:36:46;100522.41;;;14.08;60.84
81909;BME280;71372;43.514;1.512;2024-03-06T12:39:15;100517.59;;;13.99;60.32
81909;BME280;71372;43.514;1.512;2024-03-06T12:41:43;100525.50;;;13.85;60.20
81909;BME280;71372;43.514;1.512;2024-03-06T12:44:11;100511.34;;;13.83;60.57
81909;BME280;71372;43.514;1.512;2024-03-06T12:46:36;100511.34;;;13.83;60.80
81909;BME280;71372;43.514;1.512;2024-03-06T12:49:02;100499.63;;;13.85;60.26
81909;BME280;71372;43.514;1.512;2024-03-06T12:51:28;100500.59;;;14.00;60.03
81909;BME280;71372;43.514;1.512;2024-03-06T12:53:54;100497.50;;;14.23;59.77
81909;BME280;71372;43.514;1.512;2024-03-06T12:56:20;100491.16;;;14.40;59.49
81909;BME280;71372;43.514;1.512;2024-03-06T12:58:46;100485.81;;;14.56;59.21
81909;BME280;71372;43.514;1.512;2024-03-06T13:01:12;100489.44;;;14.71;58.50
81909;BME280;71372;43.514;1.512;2024-03-06T13:03:38;100485.84;;;14.86;58.70
81909;BME280;71372;43.514;1.512;2024-03-06T13:06:04;100481.78;;;14.95;58.95
81909;BME280;71372;43.514;1.512;2024-03-06T13:08:31;100488.72;;;14.83;58.33
81909;BME280;71372;43.514;1.512;2024-03-06T13:10:57;100487.81;;;14.68;58.01